Time;durP1;ratioP1;P1;durP2;ratioP2;P2;SDS_P1;SDS_P2;PMS_P1;PMS_P2;Temp;Humidity;BMP_temperature;BMP_pressure;BME280_temperature;BME280_humidity;BME280_pressure;Samples;Min_cycle;Max_cycle;Signal;HPM_P1;HPM_P2
2021/05/26 00:01:53;;;;;;;0.27;0.27;;;;;;;8.54;95.53;100092.31;5072795;28;20210;-72
2021/05/26 00:04:18;;;;;;;0.73;0.73;;;;;;;8.54;95.22;100094.22;5072836;28;20185;-72
2021/05/26 00:06:45;;;;;;;1.57;1.47;;;;;;;8.52;95.35;100094.50;5072778;28;20700;-72
2021/05/26 00:09:10;;;;;;;1.03;1.00;;;;;;;8.54;95.57;100084.13;5072499;28;20210;-72
2021/05/26 00:11:35;;;;;;;1.17;1.17;;;;;;;8.53;95.35;100089.84;5071752;28;20680;-72
2021/05/26 00:14:01;;;;;;;0.73;0.73;;;;;;;8.56;95.31;100084.63;5073085;28;20210;-72
2021/05/26 00:16:26;;;;;;;1.80;1.70;;;;;;;8.55;94.60;100080.28;5072647;28;20562;-72
2021/05/26 00:18:53;;;;;;;1.73;1.13;;;;;;;8.55;95.03;100079.50;5072526;28;20257;-72
2021/05/26 00:21:19;;;;;;;1.50;1.40;;;;;;;8.53;95.49;100074.31;5072372;28;20304;-72
2021/05/26 00:23:45;;;;;;;1.23;1.17;;;;;;;8.53;95.75;100073.53;5072533;28;20634;-73
2021/05/26 00:26:10;;;;;;;1.70;1.60;;;;;;;8.56;96.81;100081.09;5072432;28;20220;-73
2021/05/26 00:28:36;;;;;;;0.63;0.63;;;;;;;8.55;95.67;100072.13;5072250;28;20257;-72
2021/05/26 00:31:04;;;;;;;1.93;1.50;;;;;;;8.56;95.78;100072.94;5072308;28;20171;-73
2021/05/26 00:33:29;;;;;;;0.27;0.27;;;;;;;8.63;95.32;100076.03;5072671;28;20170;-72
2021/05/26 00:35:54;;;;;;;2.57;1.37;;;;;;;8.64;94.79;100070.25;5072121;28;20185;-74
2021/05/26 00:38:20;;;;;;;1.17;1.17;;;;;;;8.62;94.97;100068.97;5072014;28;20209;-72
2021/05/26 00:40:47;;;;;;;1.43;1.33;;;;;;;8.64;94.91;100069.47;5072082;28;20233;-72
2021/05/26 00:43:15;;;;;;;1.80;1.70;;;;;;;8.63;94.96;100074.09;5072405;28;20175;-72
2021/05/26 00:45:41;;;;;;;2.00;1.90;;;;;;;8.70;93.87;100073.69;5072106;28;20181;-73
2021/05/26 00:48:06;;;;;;;1.77;1.67;;;;;;;8.72;93.66;100068.75;5071908;28;20174;-72
2021/05/26 00:50:34;;;;;;;1.47;1.37;;;;;;;8.75;94.01;100068.13;5071939;28;20728;-73
2021/05/26 00:53:03;;;;;;;1.30;1.30;;;;;;;8.69;93.92;100066.63;5071957;28;20277;-72
2021/05/26 00:55:28;;;;;;;1.37;1.33;;;;;;;8.65;94.10;100076.53;5071780;28;20178;-72
2021/05/26 00:57:55;;;;;;;2.03;1.87;;;;;;;8.61;93.45;100070.09;5071699;28;20173;-72
2021/05/26 01:00:23;;;;;;;1.60;1.50;;;;;;;8.55;93.89;100060.44;5071537;28;20202;-73
2021/05/26 01:02:50;;;;;;;2.23;2.13;;;;;;;8.56;94.39;100062.84;5071658;28;20222;-75
2021/05/26 01:05:18;;;;;;;2.23;2.13;;;;;;;8.57;94.54;100060.94;5071514;28;20174;-73
2021/05/26 01:07:43;;;;;;;1.90;1.80;;;;;;;8.58;94.66;100057.91;5071515;28;20186;-72
2021/05/26 01:10:11;;;;;;;3.60;2.93;;;;;;;8.55;95.46;100050.34;5071682;28;20461;-72
2021/05/26 01:12:37;;;;;;;2.10;2.00;;;;;;;8.52;95.61;100053.66;5071469;28;20672;-73
2021/05/26 01:15:07;;;;;;;0.20;0.20;;;;;;;8.50;95.81;100050.44;5071556;28;20174;-73
2021/05/26 01:17:34;;;;;;;2.27;2.07;;;;;;;8.49;96.44;100056.19;5071190;28;20182;-72
2021/05/26 01:20:01;;;;;;;2.13;2.03;;;;;;;8.45;96.50;100044.31;5071052;28;20239;-72
2021/05/26 01:22:26;;;;;;;1.50;1.40;;;;;;;8.41;96.81;100049.56;5071298;28;20527;-72
2021/05/26 01:24:51;;;;;;;1.43;1.33;;;;;;;8.39;96.91;100042.81;5071248;28;20175;-72
2021/05/26 01:27:17;;;;;;;1.97;1.87;;;;;;;8.35;97.10;100040.69;5071154;28;20480;-73
2021/05/26 01:29:42;;;;;;;3.43;3.23;;;;;;;8.30;97.90;100045.44;5071036;28;20249;-72
2021/05/26 01:32:08;;;;;;;0.93;0.93;;;;;;;8.32;97.74;100043.22;5071323;28;20178;-73
2021/05/26 01:34:33;;;;;;;2.00;1.90;;;;;;;8.31;98.48;100038.88;5071174;28;20537;-73
2021/05/26 01:36:59;;;;;;;2.43;1.83;;;;;;;8.26;98.29;100034.38;5071025;28;20178;-72
2021/05/26 01:39:24;;;;;;;7.60;1.97;;;;;;;8.27;98.15;100033.25;5070989;28;20178;-72
2021/05/26 01:41:49;;;;;;;0.57;0.57;;;;;;;8.27;98.57;100041.41;5069706;28;20293;-74
2021/05/26 01:44:15;;;;;;;0.90;0.90;;;;;;;8.29;98.37;100031.03;5070946;28;20589;-72
2021/05/26 01:46:41;;;;;;;2.07;1.90;;;;;;;8.32;98.16;100030.41;5071071;28;20512;-74
2021/05/26 01:49:07;;;;;;;2.57;2.37;;;;;;;8.35;98.50;100034.47;5070813;28;20204;-72
2021/05/26 01:51:34;;;;;;;2.03;1.77;;;;;;;8.35;98.03;100037.19;5069704;28;20186;-73
2021/05/26 01:53:59;;;;;;;1.67;1.57;;;;;;;8.34;98.31;100039.09;5070961;28;20178;-72
2021/05/26 01:56:26;;;;;;;1.80;1.70;;;;;;;8.39;98.17;100040.09;5070909;28;20638;-72
2021/05/26 01:58:54;;;;;;;1.70;1.60;;;;;;;8.40;98.76;100044.44;5070616;28;20178;-72
2021/05/26 02:01:21;;;;;;;3.50;2.47;;;;;;;8.43;99.08;100046.53;5070940;28;20216;-73
2021/05/26 02:03:47;;;;;;;1.83;1.73;;;;;;;8.47;97.59;100042.91;5070730;28;20556;-73
2021/05/26 02:06:14;;;;;;;2.57;1.97;;;;;;;8.49;97.25;100039.88;5070751;28;20649;-73
2021/05/26 02:08:40;;;;;;;2.17;2.03;;;;;;;8.45;97.26;100042.41;5070682;28;20178;-72
2021/05/26 02:13:49;;;;;;;1.73;1.63;;;;;;;8.44;97.11;100040.78;5071361;28;20165;-73
2021/05/26 02:16:15;;;;;;;1.90;1.80;;;;;;;8.44;97.31;100031.81;5070057;28;20171;-73
2021/05/26 02:18:40;;;;;;;2.77;2.40;;;;;;;8.45;97.94;100034.22;5070439;28;20216;-72
2021/05/26 02:21:06;;;;;;;3.20;2.90;;;;;;;8.47;97.98;100032.00;5070479;28;20194;-72
2021/05/26 02:23:31;;;;;;;2.10;1.90;;;;;;;8.46;97.81;100030.41;5070642;28;20561;-72
2021/05/26 02:25:57;;;;;;;0.40;0.40;;;;;;;8.50;98.24;100027.84;5070569;28;20198;-73
2021/05/26 02:28:22;;;;;;;3.10;2.83;;;;;;;8.51;98.17;100026.75;5069202;28;20258;-72
2021/05/26 02:30:48;;;;;;;2.30;2.10;;;;;;;8.53;97.77;100028.03;5070544;28;20189;-73
2021/05/26 02:33:13;;;;;;;3.10;2.80;;;;;;;8.53;97.60;100022.59;5070584;28;20464;-72
2021/05/26 02:35:38;;;;;;;3.60;3.13;;;;;;;8.54;97.63;100026.16;5070659;28;20175;-72
2021/05/26 02:38:04;;;;;;;0.93;0.40;;;;;;;8.53;96.84;100025.31;5070421;28;20257;-73
2021/05/26 02:40:33;;;;;;;1.93;1.80;;;;;;;8.54;96.49;100026.97;5070436;28;20277;-72
2021/05/26 02:42:58;;;;;;;0.87;0.87;;;;;;;8.53;96.52;100030.75;5070518;28;20175;-72
2021/05/26 02:45:24;;;;;;;4.60;1.63;;;;;;;8.54;96.29;100026.97;5070516;28;20179;-72
2021/05/26 02:47:49;;;;;;;2.40;2.30;;;;;;;8.53;95.95;100019.06;5070650;28;20202;-72
2021/05/26 02:50:17;;;;;;;4.47;1.63;;;;;;;8.52;95.78;100021.00;5069083;28;20190;-72
2021/05/26 02:52:43;;;;;;;3.17;2.93;;;;;;;8.53;95.86;100021.78;5070391;28;20166;-72
2021/05/26 02:55:10;;;;;;;2.47;2.27;;;;;;;8.54;96.58;100015.25;5070327;28;20215;-72
2021/05/26 02:57:35;;;;;;;2.53;2.43;;;;;;;8.55;96.00;100017.66;5070139;28;20182;-72
2021/05/26 03:00:01;;;;;;;2.53;1.80;;;;;;;8.57;95.37;100004.56;5070184;28;20576;-73
2021/05/26 03:02:26;;;;;;;1.53;1.43;;;;;;;8.58;95.31;100016.25;5068947;28;20179;-74
2021/05/26 03:04:51;;;;;;;2.90;2.70;;;;;;;8.57;95.26;100009.19;5070265;28;20540;-74
2021/05/26 03:07:17;;;;;;;2.37;2.23;;;;;;;8.54;95.03;100009.81;5070274;28;20618;-73
2021/05/26 03:09:42;;;;;;;4.73;2.10;;;;;;;8.57;95.23;100018.16;5070130;28;20535;-73
2021/05/26 03:12:08;;;;;;;2.00;1.90;;;;;;;8.59;94.85;100018.66;5070270;28;20183;-72
2021/05/26 03:14:34;;;;;;;1.77;1.67;;;;;;;8.58;95.00;100008.06;5070132;28;20227;-73
2021/05/26 03:16:59;;;;;;;1.50;1.40;;;;;;;8.58;94.11;100016.25;5070110;28;20650;-73
2021/05/26 03:19:24;;;;;;;1.20;1.20;;;;;;;8.56;94.49;100007.59;5069710;28;20569;-73
2021/05/26 03:21:50;;;;;;;2.40;2.20;;;;;;;8.59;95.31;100009.69;5070039;28;20214;-73
2021/05/26 03:24:15;;;;;;;3.30;2.03;;;;;;;8.61;94.76;100018.34;5070122;28;20182;-72
2021/05/26 03:26:40;;;;;;;2.40;2.20;;;;;;;8.59;94.70;100012.41;5070073;28;20170;-72
2021/05/26 03:29:07;;;;;;;6.53;1.33;;;;;;;8.56;94.32;100018.47;5072346;28;20179;-72
2021/05/26 03:31:32;;;;;;;2.03;1.90;;;;;;;8.53;94.54;100011.72;5073424;28;20202;-72
2021/05/26 03:33:58;;;;;;;1.63;1.50;;;;;;;8.51;95.30;100007.69;5072315;28;20279;-72
2021/05/26 03:36:23;;;;;;;0.80;0.80;;;;;;;8.47;95.25;100018.41;5073585;28;20497;-72
2021/05/26 03:38:49;;;;;;;6.53;2.13;;;;;;;8.44;95.42;100015.50;5073323;28;20195;-73
2021/05/26 03:41:14;;;;;;;0.57;0.57;;;;;;;8.43;95.32;100008.44;5073368;28;20194;-73
2021/05/26 03:43:39;;;;;;;2.27;2.10;;;;;;;8.38;95.76;100005.81;5073407;28;20562;-72
2021/05/26 03:46:05;;;;;;;1.27;0.73;;;;;;;8.31;96.13;100014.38;5073366;28;20250;-72
2021/05/26 03:48:30;;;;;;;0.43;0.40;;;;;;;8.29;96.41;100009.25;5073288;28;20182;-73
2021/05/26 03:50:55;;;;;;;1.07;1.03;;;;;;;8.26;96.79;100007.16;5073404;28;20171;-73
2021/05/26 03:53:21;;;;;;;1.80;1.70;;;;;;;8.24;97.11;100011.25;5073202;28;20178;-72
2021/05/26 03:55:46;;;;;;;1.50;1.43;;;;;;;8.24;96.88;100012.06;5073136;28;20181;-73
2021/05/26 03:58:12;;;;;;;4.40;1.33;;;;;;;8.26;97.18;100009.06;5072944;28;20393;-73
2021/05/26 04:00:37;;;;;;;4.33;2.23;;;;;;;8.25;95.79;100010.97;5072918;28;20237;-72
2021/05/26 04:03:03;;;;;;;0.30;0.30;;;;;;;8.27;95.44;100006.03;5073555;28;20167;-74
2021/05/26 04:05:28;;;;;;;1.53;1.43;;;;;;;8.29;95.39;100009.25;5073192;28;20181;-73
2021/05/26 04:07:53;;;;;;;1.13;1.13;;;;;;;8.30;94.94;100004.63;5072859;28;20690;-74
2021/05/26 04:10:19;;;;;;;0.20;0.20;;;;;;;8.33;94.58;100010.25;5072986;28;20190;-73
2021/05/26 04:12:44;;;;;;;0.67;0.67;;;;;;;8.35;95.38;100010.75;5073082;28;20174;-73
2021/05/26 04:15:10;;;;;;;1.60;1.50;;;;;;;8.37;95.44;100010.44;5072788;28;20185;-73
2021/05/26 04:17:36;;;;;;;5.87;2.47;;;;;;;8.37;94.98;100006.94;5072691;28;20181;-73
2021/05/26 04:20:05;;;;;;;2.60;2.23;;;;;;;8.38;95.56;100011.25;5072436;28;20543;-74
2021/05/26 04:22:32;;;;;;;2.07;1.97;;;;;;;8.40;96.07;100004.41;5072950;28;20184;-74
2021/05/26 04:24:57;;;;;;;6.23;1.90;;;;;;;8.42;95.50;100006.81;5072515;28;20171;-73
2021/05/26 04:27:23;;;;;;;1.70;1.60;;;;;;;8.42;96.29;100010.34;5072391;28;20820;-72
2021/05/26 04:29:48;;;;;;;2.47;2.07;;;;;;;8.44;96.31;99999.16;5072436;28;20175;-73
2021/05/26 04:32:14;;;;;;;3.33;2.87;;;;;;;8.49;95.81;99993.59;5072528;28;20203;-74
2021/05/26 04:34:39;;;;;;;0.90;0.90;;;;;;;8.50;95.00;99990.56;5072353;28;20540;-74
2021/05/26 04:37:04;;;;;;;9.57;2.00;;;;;;;8.50;95.46;99987.03;5072296;28;20198;-73
2021/05/26 04:39:30;;;;;;;0.93;0.93;;;;;;;8.54;95.67;99991.56;5071636;28;20623;-74
2021/05/26 04:41:55;;;;;;;1.30;1.20;;;;;;;8.55;96.02;99989.63;5072027;28;20198;-73
2021/05/26 04:44:20;;;;;;;1.77;1.67;;;;;;;8.56;95.27;99988.53;5070730;28;20470;-73
2021/05/26 04:46:46;;;;;;;1.40;1.40;;;;;;;8.59;94.81;99985.19;5072128;28;20538;-74
2021/05/26 04:49:12;;;;;;;1.10;1.07;;;;;;;8.60;94.39;99998.47;5071952;28;20179;-74
2021/05/26 04:51:37;;;;;;;2.37;2.17;;;;;;;8.63;94.21;99989.69;5070687;28;20247;-74
2021/05/26 04:54:03;;;;;;;0.30;0.30;;;;;;;8.65;93.59;99987.47;5070596;28;20551;-73
2021/05/26 04:56:29;;;;;;;1.07;1.07;;;;;;;8.73;94.15;99987.84;5071701;28;20175;-73
2021/05/26 04:58:54;;;;;;;0.87;0.87;;;;;;;8.74;92.82;99987.53;5071555;28;20200;-73
2021/05/26 05:01:21;;;;;;;2.77;1.90;;;;;;;8.81;93.12;99987.88;5071709;28;20205;-74
2021/05/26 05:03:46;;;;;;;1.00;1.00;;;;;;;8.86;92.22;99978.78;5071856;28;20178;-74
2021/05/26 05:06:12;;;;;;;1.63;1.13;;;;;;;8.90;92.27;99983.31;5071718;28;20240;-73
2021/05/26 05:08:38;;;;;;;1.73;1.63;;;;;;;8.94;92.84;99981.56;5071550;28;20174;-73
2021/05/26 05:11:04;;;;;;;2.60;1.47;;;;;;;8.96;91.91;99981.25;5070181;28;20182;-73
2021/05/26 05:13:29;;;;;;;0.70;0.70;;;;;;;8.97;91.14;99971.97;5071648;28;20682;-73
2021/05/26 05:15:54;;;;;;;2.10;2.00;;;;;;;8.98;91.85;99978.22;5071695;28;20219;-73
2021/05/26 05:18:20;;;;;;;3.97;1.47;;;;;;;8.98;90.38;99973.59;5071626;28;20244;-69
2021/05/26 05:20:45;;;;;;;0.60;0.60;;;;;;;9.02;91.18;99974.56;5071114;28;20554;-73
2021/05/26 05:23:10;;;;;;;1.70;1.60;;;;;;;9.05;91.54;99981.31;5071344;28;20264;-73
2021/05/26 05:25:36;;;;;;;1.83;1.47;;;;;;;9.10;91.44;99972.97;5071359;28;20208;-73
2021/05/26 05:28:04;;;;;;;1.40;1.40;;;;;;;9.10;90.70;99979.25;5071092;28;20328;-74
2021/05/26 05:30:29;;;;;;;0.40;0.40;;;;;;;9.10;89.54;99976.50;5071453;28;20248;-73
2021/05/26 05:32:54;;;;;;;1.23;1.13;;;;;;;9.09;89.83;99974.09;5071275;28;20206;-72
2021/05/26 05:35:20;;;;;;;6.33;1.43;;;;;;;9.07;90.46;99976.34;5072553;28;20261;-73
2021/05/26 05:37:45;;;;;;;0.87;0.87;;;;;;;9.10;89.66;99987.41;5073587;28;20630;-73
2021/05/26 05:40:11;;;;;;;1.20;1.10;;;;;;;9.10;89.03;99989.34;5072459;28;20181;-72
2021/05/26 05:42:36;;;;;;;1.23;1.13;;;;;;;9.13;89.61;99989.53;5071109;28;20676;-72
2021/05/26 05:45:03;;;;;;;0.73;0.73;;;;;;;9.13;88.37;99978.63;5071577;28;20683;-72
2021/05/26 05:47:28;;;;;;;1.07;1.03;;;;;;;9.18;89.12;99983.13;5071113;28;20182;-72
2021/05/26 05:49:54;;;;;;;0.70;0.70;;;;;;;9.19;88.26;99976.56;5070777;28;20174;-72
2021/05/26 05:52:19;;;;;;;1.00;1.00;;;;;;;9.23;87.50;99983.00;5070467;28;20178;-71
2021/05/26 05:54:45;;;;;;;1.90;1.40;;;;;;;9.27;87.07;99970.38;5070952;28;20193;-71
2021/05/26 05:57:10;;;;;;;1.17;1.10;;;;;;;9.35;87.90;99972.31;5070845;28;20183;-72
2021/05/26 05:59:35;;;;;;;4.90;0.90;;;;;;;9.42;86.98;99963.69;5070753;28;20656;-71
2021/05/26 06:02:01;;;;;;;0.60;0.60;;;;;;;9.44;86.71;99966.91;5071139;28;20210;-72
2021/05/26 06:04:27;;;;;;;1.00;1.00;;;;;;;9.52;87.27;99969.63;5070720;28;20174;-72
2021/05/26 06:06:52;;;;;;;2.30;1.70;;;;;;;9.58;86.29;99964.06;5071114;28;20171;-72
2021/05/26 06:09:17;;;;;;;1.30;1.20;;;;;;;9.51;86.21;99962.56;5070491;28;20266;-72
2021/05/26 06:11:43;;;;;;;0.30;0.30;;;;;;;9.53;86.64;99959.53;5069495;28;20171;-72
2021/05/26 06:14:08;;;;;;;0.40;0.40;;;;;;;9.48;85.80;99956.97;5070713;28;20174;-72
2021/05/26 06:16:38;;;;;;;0.63;0.63;;;;;;;9.43;86.01;99955.19;5069377;28;20181;-72
2021/05/26 06:19:05;;;;;;;1.50;1.40;;;;;;;9.50;85.77;99955.53;5070682;28;20174;-73
2021/05/26 06:21:31;;;;;;;2.50;2.17;;;;;;;9.66;86.93;99950.44;5070564;28;20280;-72
2021/05/26 06:23:57;;;;;;;0.10;0.10;;;;;;;9.81;85.15;99955.44;5068338;28;20626;-72
2021/05/26 06:26:23;;;;;;;0.40;0.40;;;;;;;9.85;83.90;99950.16;5066607;28;20170;-72
2021/05/26 06:28:48;;;;;;;0.97;0.80;;;;;;;9.96;84.34;99939.72;5070258;28;20182;-72
2021/05/26 06:31:15;;;;;;;1.47;1.37;;;;;;;10.13;83.72;99940.56;5070486;28;20182;-72
2021/05/26 06:33:44;;;;;;;0.83;0.83;;;;;;;10.27;82.88;99934.97;5070579;28;20173;-73
2021/05/26 06:36:12;;;;;;;1.47;1.10;;;;;;;10.43;82.34;99943.47;5070862;28;20223;-73
2021/05/26 06:38:38;;;;;;;0.43;0.43;;;;;;;10.29;79.97;99932.72;5070459;28;20178;-72
2021/05/26 06:41:04;;;;;;;1.63;1.53;;;;;;;10.31;80.73;99935.13;5070304;28;20562;-72
2021/05/26 06:43:30;;;;;;;1.50;1.40;;;;;;;10.36;80.23;99929.50;5070443;28;20178;-72
2021/05/26 06:45:56;;;;;;;0.20;0.20;;;;;;;10.51;80.99;99920.81;5070416;28;20174;-73
2021/05/26 06:48:23;;;;;;;1.20;1.10;;;;;;;10.68;80.30;99934.44;5070212;28;20472;-72
2021/05/26 06:50:48;;;;;;;0.43;0.43;;;;;;;10.83;80.05;99941.31;5070441;28;20178;-73
2021/05/26 06:53:14;;;;;;;0.67;0.67;;;;;;;10.88;80.08;99934.88;5070373;28;20177;-73
2021/05/26 06:55:39;;;;;;;0.73;0.73;;;;;;;10.88;79.80;99934.88;5070364;28;20198;-72
2021/05/26 06:58:04;;;;;;;1.90;1.23;;;;;;;10.75;80.57;99933.94;5070151;28;20166;-72
2021/05/26 07:00:31;;;;;;;1.60;1.50;;;;;;;10.63;79.27;99931.06;5069927;28;20619;-72
2021/05/26 07:02:56;;;;;;;1.10;1.10;;;;;;;10.48;80.17;99923.38;5072535;28;20210;-74
2021/05/26 07:05:22;;;;;;;0.97;0.73;;;;;;;10.43;80.66;99930.63;5073323;28;20218;-72
2021/05/26 07:07:47;;;;;;;1.10;1.03;;;;;;;10.40;79.27;99916.78;5073332;28;20269;-73
2021/05/26 07:10:13;;;;;;;0.60;0.60;;;;;;;10.41;79.96;99916.50;5073562;28;20546;-72
2021/05/26 07:12:38;;;;;;;0.73;0.73;;;;;;;10.50;78.70;99921.94;5073846;28;20675;-73
2021/05/26 07:15:05;;;;;;;1.07;0.60;;;;;;;10.58;79.17;99921.13;5073563;28;20231;-73
2021/05/26 07:17:33;;;;;;;1.80;1.50;;;;;;;10.60;80.60;99921.59;5072182;28;20557;-73
2021/05/26 07:19:59;;;;;;;1.43;1.23;;;;;;;10.70;80.41;99915.81;5073478;28;20232;-72
2021/05/26 07:22:24;;;;;;;2.10;1.40;;;;;;;10.87;79.35;99911.41;5072461;28;20713;-72
2021/05/26 07:24:50;;;;;;;0.80;0.80;;;;;;;10.85;79.28;99913.66;5073682;28;20235;-72
2021/05/26 07:27:15;;;;;;;0.77;0.77;;;;;;;10.87;79.16;99917.69;5073459;28;20253;-72
2021/05/26 07:29:40;;;;;;;0.67;0.50;;;;;;;10.77;78.22;99912.56;5073395;28;20211;-72
2021/05/26 07:32:06;;;;;;;4.60;1.50;;;;;;;10.87;80.35;99908.69;5073560;28;20654;-73
2021/05/26 07:34:31;;;;;;;1.53;1.43;;;;;;;10.88;78.56;99904.81;5073440;28;20166;-72
2021/05/26 07:36:56;;;;;;;2.50;1.67;;;;;;;10.87;78.98;99909.50;5073480;28;20659;-73
2021/05/26 07:39:23;;;;;;;1.70;1.43;;;;;;;10.88;79.72;99916.56;5070921;28;20210;-72
2021/05/26 07:41:49;;;;;;;0.40;0.40;;;;;;;10.83;79.70;99932.31;5071071;28;20202;-72
2021/05/26 07:44:14;;;;;;;0.40;0.40;;;;;;;10.76;79.02;99910.97;5072773;28;20201;-72
2021/05/26 07:46:40;;;;;;;1.57;1.47;;;;;;;10.72;79.39;99916.28;5067547;28;20265;-72
2021/05/26 07:49:05;;;;;;;0.30;0.30;;;;;;;10.75;80.08;99914.03;5069503;28;20225;-72
2021/05/26 07:51:33;;;;;;;0.90;0.90;;;;;;;10.80;78.91;99900.97;5063555;28;20658;-72
2021/05/26 07:54:00;;;;;;;1.00;1.00;;;;;;;10.88;79.18;99913.81;5052810;28;20163;-72
2021/05/26 07:56:27;;;;;;;1.10;1.00;;;;;;;11.10;78.46;99912.75;5069811;28;20534;-72
2021/05/26 07:58:53;;;;;;;1.17;1.03;;;;;;;11.31;78.12;99916.38;5071249;28;20232;-72
2021/05/26 08:01:18;;;;;;;0.60;0.60;;;;;;;11.45;77.21;99907.94;5072956;28;20705;-73
2021/05/26 08:03:43;;;;;;;2.40;1.63;;;;;;;11.59;76.99;99913.19;5073000;28;20179;-72
2021/05/26 08:06:09;;;;;;;1.37;1.33;;;;;;;11.63;75.64;99917.66;5073019;28;20171;-73
2021/05/26 08:08:35;;;;;;;1.00;1.00;;;;;;;11.68;76.26;99913.13;5072711;28;20166;-73
2021/05/26 08:11:01;;;;;;;2.20;0.70;;;;;;;11.46;74.86;99922.44;5072696;28;20650;-73
2021/05/26 08:13:26;;;;;;;1.87;1.33;;;;;;;11.37;76.50;99913.47;5071903;28;20174;-72
2021/05/26 08:15:52;;;;;;;0.80;0.80;;;;;;;11.32;76.32;99915.25;5072698;28;20170;-73
2021/05/26 08:18:20;;;;;;;4.50;0.90;;;;;;;11.25;75.64;99906.75;5072521;28;20170;-74
2021/05/26 08:20:47;;;;;;;0.80;0.80;;;;;;;11.25;75.53;99912.22;5072360;28;20199;-73
2021/05/26 08:23:14;;;;;;;0.93;0.60;;;;;;;11.22;75.57;99914.81;5072998;28;20218;-73
2021/05/26 08:25:39;;;;;;;0.60;0.60;;;;;;;11.22;76.31;99912.06;5072429;28;20291;-73
2021/05/26 08:28:05;;;;;;;0.73;0.73;;;;;;;11.19;76.21;99907.28;5072340;28;20273;-74
2021/05/26 08:30:30;;;;;;;5.27;1.80;;;;;;;11.26;76.54;99902.88;5071153;28;20698;-73
2021/05/26 08:32:55;;;;;;;0.87;0.87;;;;;;;11.36;77.59;99903.66;5072230;28;20649;-73
2021/05/26 08:35:21;;;;;;;0.80;0.80;;;;;;;11.29;76.23;99910.44;5071965;28;20538;-73
2021/05/26 08:37:46;;;;;;;0.50;0.50;;;;;;;11.39;77.79;99906.53;5071690;28;20170;-74
2021/05/26 08:40:12;;;;;;;0.20;0.20;;;;;;;11.46;76.71;99898.63;5071812;28;20170;-73
2021/05/26 08:42:41;;;;;;;1.43;1.27;;;;;;;11.57;76.92;99899.84;5070252;28;20198;-72
2021/05/26 08:45:07;;;;;;;0.50;0.50;;;;;;;11.68;73.81;99894.75;5066986;28;20762;-73
2021/05/26 08:47:34;;;;;;;0.80;0.80;;;;;;;11.70;73.47;99897.16;5071670;28;20262;-73
2021/05/26 08:50:00;;;;;;;2.13;2.03;;;;;;;11.85;73.79;99888.41;5068294;28;20187;-73
2021/05/26 08:52:25;;;;;;;0.97;0.97;;;;;;;11.99;75.52;99888.13;5066526;28;20193;-73
2021/05/26 08:54:50;;;;;;;1.63;1.53;;;;;;;11.98;70.94;99883.78;5071765;28;20251;-73
2021/05/26 08:57:16;;;;;;;1.20;1.10;;;;;;;12.05;72.15;99886.81;5060707;28;20615;-73
2021/05/26 08:59:42;;;;;;;1.83;1.73;;;;;;;12.22;72.88;99886.66;5071343;28;20202;-73
2021/05/26 09:02:11;;;;;;;1.23;1.07;;;;;;;12.27;70.66;99877.41;5071727;28;20210;-73
2021/05/26 09:04:37;;;;;;;2.87;0.70;;;;;;;12.45;69.22;99876.13;5071424;28;20183;-74
2021/05/26 09:07:12;;;;;;;4.90;0.60;;;;;;;12.74;68.75;99875.19;5071035;28;20562;-73
2021/05/26 09:09:54;;;;;;;1.07;1.03;;;;;;;12.61;67.56;99873.56;5071056;28;20235;-74
2021/05/26 09:12:26;;;;;;;0.40;0.40;;;;;;;12.36;66.99;99864.44;5069728;28;20186;-74
2021/05/26 09:14:52;;;;;;;0.70;0.47;;;;;;;12.41;66.96;99878.72;5070120;28;20193;-74
2021/05/26 09:17:17;;;;;;;2.53;1.07;;;;;;;12.38;67.88;99867.66;5070800;28;20178;-74
2021/05/26 09:19:42;;;;;;;0.53;0.53;;;;;;;12.38;70.56;99873.94;5067898;28;20224;-72
2021/05/26 09:22:12;;;;;;;18.70;1.70;;;;;;;12.17;71.69;99882.19;5061942;28;20241;-73
2021/05/26 09:24:38;;;;;;;0.50;0.50;;;;;;;11.86;71.88;99879.03;5069826;28;20542;-74
2021/05/26 09:27:07;;;;;;;0.50;0.43;;;;;;;11.72;72.50;99882.03;5071161;28;20178;-74
2021/05/26 09:29:44;;;;;;;0.83;0.70;;;;;;;11.74;73.51;99887.19;5056555;28;20181;-73
2021/05/26 09:32:25;;;;;;;0.60;0.60;;;;;;;11.85;73.26;99883.72;5071267;28;20262;-74
2021/05/26 09:34:52;;;;;;;0.80;0.80;;;;;;;11.96;71.33;99872.38;5071147;28;20205;-73
2021/05/26 09:37:23;;;;;;;3.73;1.27;;;;;;;11.99;70.80;99874.44;5071461;28;20198;-73
2021/05/26 09:39:50;;;;;;;2.53;0.63;;;;;;;12.11;72.31;99880.78;5071151;28;20183;-74
2021/05/26 09:42:27;;;;;;;1.30;0.83;;;;;;;12.16;71.65;99877.06;5068782;28;20225;-73
2021/05/26 09:45:19;;;;;;;0.43;0.43;;;;;;;12.06;69.30;99877.47;5069267;28;20208;-73
2021/05/26 09:47:51;;;;;;;0.50;0.50;;;;;;;12.15;70.26;99876.25;5059608;28;20582;-73
2021/05/26 09:50:35;;;;;;;1.37;0.73;;;;;;;12.28;69.81;99868.88;5063358;28;20551;-72
2021/05/26 09:53:11;;;;;;;1.47;1.10;;;;;;;12.55;69.21;99866.66;5049650;28;20174;-73
2021/05/26 09:55:38;;;;;;;0.70;0.70;;;;;;;12.74;68.48;99864.22;5050516;28;20665;-73
2021/05/26 09:58:05;;;;;;;1.90;0.90;;;;;;;12.44;67.82;99858.91;5049890;28;20205;-72
2021/05/26 10:00:32;;;;;;;0.70;0.70;;;;;;;12.49;69.16;99869.63;5062662;28;20298;-73
2021/05/26 10:02:58;;;;;;;0.53;0.50;;;;;;;12.61;70.47;99857.13;5064698;28;20186;-72
2021/05/26 10:05:25;;;;;;;0.63;0.63;;;;;;;12.73;65.14;99854.38;5048706;28;20226;-73
2021/05/26 10:07:56;;;;;;;0.30;0.30;;;;;;;12.93;66.42;99842.53;5050162;28;20182;-72
2021/05/26 10:10:24;;;;;;;0.93;0.47;;;;;;;13.37;67.19;99840.03;5050379;28;20171;-73
2021/05/26 10:12:55;;;;;;;0.03;0.00;;;;;;;13.50;64.72;99844.38;5050374;28;20177;-73
2021/05/26 10:15:22;;;;;;;0.50;0.50;;;;;;;13.11;62.66;99843.09;5050440;28;20187;-73
2021/05/26 10:17:50;;;;;;;0.70;0.70;;;;;;;13.16;63.14;99837.38;5050021;28;20513;-73
2021/05/26 10:20:21;;;;;;;0.40;0.37;;;;;;;13.38;59.82;99853.41;5050364;28;20177;-73
2021/05/26 10:22:49;;;;;;;0.37;0.37;;;;;;;13.54;62.97;99838.97;5050344;28;20576;-74
2021/05/26 10:25:15;;;;;;;0.03;0.00;;;;;;;13.81;60.63;99838.22;5050437;28;20536;-73
2021/05/26 10:27:48;;;;;;;4.43;1.17;;;;;;;13.76;57.02;99843.97;5050460;28;20189;-73
2021/05/26 10:30:14;;;;;;;0.23;0.23;;;;;;;13.38;59.02;99834.22;5050303;28;20647;-73
2021/05/26 10:32:59;;;;;;;0.30;0.30;;;;;;;13.31;61.27;99844.19;5062790;28;20630;-73
2021/05/26 10:35:29;;;;;;;0.50;0.50;;;;;;;13.47;61.58;99825.06;5066451;28;20190;-74
2021/05/26 10:37:58;;;;;;;0.40;0.40;;;;;;;13.73;60.12;99827.38;5072657;28;20178;-73
2021/05/26 10:40:33;;;;;;;1.00;0.93;;;;;;;13.83;61.85;99835.13;5074450;28;20556;-72
2021/05/26 10:43:22;;;;;;;0.20;0.20;;;;;;;13.93;59.74;99829.97;5074504;28;20253;-73
2021/05/26 10:45:53;;;;;;;0.10;0.10;;;;;;;14.14;60.60;99820.72;5068764;28;20569;-74
2021/05/26 10:48:41;;;;;;;0.30;0.10;;;;;;;14.03;59.50;99817.66;5072808;28;20174;-73
2021/05/26 10:51:07;;;;;;;1.17;0.73;;;;;;;14.05;59.99;99822.84;5074292;28;20174;-73
2021/05/26 10:53:41;;;;;;;0.20;0.20;;;;;;;14.05;58.88;99818.13;5074233;28;20209;-74
2021/05/26 10:56:26;;;;;;;1.40;0.90;;;;;;;14.04;60.13;99844.00;5057136;28;20175;-73
2021/05/26 10:58:52;;;;;;;0.40;0.40;;;;;;;13.81;60.94;99821.75;5053798;28;20178;-74
2021/05/26 11:01:17;;;;;;;0.17;0.17;;;;;;;13.66;60.15;99828.78;5057746;28;20532;-73
2021/05/26 11:03:44;;;;;;;3.10;0.40;;;;;;;14.04;60.37;99822.03;5074015;28;20218;-73
2021/05/26 11:06:16;;;;;;;0.57;0.53;;;;;;;14.35;56.17;99817.75;5074002;28;20162;-73
2021/05/26 11:08:45;;;;;;;0.50;0.50;;;;;;;14.52;59.18;99817.47;5073845;28;20206;-73
2021/05/26 11:11:26;;;;;;;0.50;0.50;;;;;;;14.81;55.39;99819.78;5074050;28;20193;-73
2021/05/26 11:14:08;;;;;;;0.50;0.17;;;;;;;14.69;53.62;99808.88;5072406;28;20201;-73
2021/05/26 11:16:40;;;;;;;0.40;0.33;;;;;;;14.58;56.66;99810.53;5073414;28;20163;-74
2021/05/26 11:19:13;;;;;;;0.20;0.20;;;;;;;14.28;57.29;99810.91;5073185;28;20171;-73
2021/05/26 11:22:06;;;;;;;0.00;0.00;;;;;;;14.16;58.22;99815.66;5073180;28;20289;-74
2021/05/26 11:24:33;;;;;;;0.43;0.43;;;;;;;13.97;59.02;99827.31;5073818;28;20185;-73
2021/05/26 11:27:14;;;;;;;0.80;0.50;;;;;;;13.78;59.90;99813.44;5073213;28;20174;-73
2021/05/26 11:29:39;;;;;;;0.30;0.30;;;;;;;13.70;59.22;99812.41;5069728;28;20267;-74
2021/05/26 11:32:09;;;;;;;0.20;0.20;;;;;;;13.69;60.60;99824.53;5073287;28;20252;-73
2021/05/26 11:34:36;;;;;;;0.10;0.10;;;;;;;13.55;59.48;99824.13;5073343;28;20182;-74
2021/05/26 11:37:02;;;;;;;0.97;0.97;;;;;;;13.48;60.63;99827.47;5073536;28;20171;-72